sensor_id;sensor_type;location;lat;lon;timestamp;temperature;humidity
25138;DHT22;13112;50.986;4.354;2023-03-01T00:00:39;1.50;99.90
25138;DHT22;13112;50.986;4.354;2023-03-01T00:03:05;1.40;99.90
25138;DHT22;13112;50.986;4.354;2023-03-01T00:05:31;1.30;99.90
25138;DHT22;13112;50.986;4.354;2023-03-01T00:07:57;1.30;99.90
25138;DHT22;13112;50.986;4.354;2023-03-01T00:10:23;1.40;99.90
25138;DHT22;13112;50.986;4.354;2023-03-01T00:12:48;1.30;99.90
25138;DHT22;13112;50.986;4.354;2023-03-01T00:15:14;1.30;99.90
25138;DHT22;13112;50.986;4.354;2023-03-01T00:17:40;1.30;99.90
25138;DHT22;13112;50.986;4.354;2023-03-01T00:20:06;1.30;99.90
25138;DHT22;13112;50.986;4.354;2023-03-01T00:22:36;1.20;99.90
25138;DHT22;13112;50.986;4.354;2023-03-01T00:25:03;1.20;99.90
25138;DHT22;13112;50.986;4.354;2023-03-01T00:27:28;1.10;99.90
25138;DHT22;13112;50.986;4.354;2023-03-01T00:29:54;1.20;99.90
25138;DHT22;13112;50.986;4.354;2023-03-01T00:32:20;1.20;99.90
25138;DHT22;13112;50.986;4.354;2023-03-01T00:34:45;1.20;99.90
25138;DHT22;13112;50.986;4.354;2023-03-01T00:37:22;1.20;99.90
25138;DHT22;13112;50.986;4.354;2023-03-01T00:39:49;1.00;99.90
25138;DHT22;13112;50.986;4.354;2023-03-01T00:42:15;1.00;99.90
25138;DHT22;13112;50.986;4.354;2023-03-01T00:44:40;1.00;99.90
25138;DHT22;13112;50.986;4.354;2023-03-01T00:47:06;0.90;99.90
25138;DHT22;13112;50.986;4.354;2023-03-01T00:49:32;0.90;99.90
25138;DHT22;13112;50.986;4.354;2023-03-01T00:51:57;0.90;99.90
25138;DHT22;13112;50.986;4.354;2023-03-01T00:54:23;0.90;99.90
25138;DHT22;13112;50.986;4.354;2023-03-01T00:56:49;0.90;99.90
25138;DHT22;13112;50.986;4.354;2023-03-01T00:59:14;1.00;99.90
25138;DHT22;13112;50.986;4.354;2023-03-01T01:01:40;1.00;99.90
25138;DHT22;13112;50.986;4.354;2023-03-01T01:04:08;1.00;99.90
25138;DHT22;13112;50.986;4.354;2023-03-01T01:06:38;1.00;99.90
25138;DHT22;13112;50.986;4.354;2023-03-01T01:09:06;1.00;99.90
25138;DHT22;13112;50.986;4.354;2023-03-01T01:11:33;1.10;99.90
25138;DHT22;13112;50.986;4.354;2023-03-01T01:14:00;1.10;99.90
25138;DHT22;13112;50.986;4.354;2023-03-01T01:16:27;1.10;99.90
25138;DHT22;13112;50.986;4.354;2023-03-01T01:18:53;1.00;99.90
25138;DHT22;13112;50.986;4.354;2023-03-01T01:21:21;1.00;99.90
25138;DHT22;13112;50.986;4.354;2023-03-01T01:23:48;1.10;99.90
25138;DHT22;13112;50.986;4.354;2023-03-01T01:26:19;1.20;99.90
25138;DHT22;13112;50.986;4.354;2023-03-01T01:28:45;1.20;99.90
25138;DHT22;13112;50.986;4.354;2023-03-01T01:31:11;1.10;99.90
25138;DHT22;13112;50.986;4.354;2023-03-01T01:33:38;1.00;99.90
25138;DHT22;13112;50.986;4.354;2023-03-01T01:36:07;1.00;99.90
25138;DHT22;13112;50.986;4.354;2023-03-01T01:38:34;1.00;99.90
25138;DHT22;13112;50.986;4.354;2023-03-01T01:41:00;1.00;99.90
25138;DHT22;13112;50.986;4.354;2023-03-01T01:43:31;0.90;99.90
25138;DHT22;13112;50.986;4.354;2023-03-01T01:46:04;0.90;99.90
25138;DHT22;13112;50.986;4.354;2023-03-01T01:48:40;0.90;99.90
25138;DHT22;13112;50.986;4.354;2023-03-01T01:51:11;1.00;99.90
25138;DHT22;13112;50.986;4.354;2023-03-01T01:53:39;0.90;99.90
25138;DHT22;13112;50.986;4.354;2023-03-01T01:56:07;0.80;99.90
25138;DHT22;13112;50.986;4.354;2023-03-01T01:58:34;0.80;99.90
25138;DHT22;13112;50.986;4.354;2023-03-01T02:01:01;0.80;99.90
25138;DHT22;13112;50.986;4.354;2023-03-01T02:03:30;0.80;99.90
25138;DHT22;13112;50.986;4.354;2023-03-01T02:06:06;0.80;99.90
25138;DHT22;13112;50.986;4.354;2023-03-01T02:08:38;0.80;99.90
25138;DHT22;13112;50.986;4.354;2023-03-01T02:11:07;0.80;99.90
25138;DHT22;13112;50.986;4.354;2023-03-01T02:13:34;0.60;99.90
25138;DHT22;13112;50.986;4.354;2023-03-01T02:16:09;0.60;99.90
25138;DHT22;13112;50.986;4.354;2023-03-01T02:18:36;0.50;99.90
25138;DHT22;13112;50.986;4.354;2023-03-01T02:26:48;0.50;99.90
25138;DHT22;13112;50.986;4.354;2023-03-01T02:29:15;0.50;99.90
25138;DHT22;13112;50.986;4.354;2023-03-01T02:31:41;0.50;99.90
25138;DHT22;13112;50.986;4.354;2023-03-01T02:34:10;0.40;99.90
25138;DHT22;13112;50.986;4.354;2023-03-01T02:36:40;0.40;99.90
25138;DHT22;13112;50.986;4.354;2023-03-01T02:39:09;0.30;99.90
25138;DHT22;13112;50.986;4.354;2023-03-01T02:41:42;0.20;99.90
25138;DHT22;13112;50.986;4.354;2023-03-01T02:44:08;0.20;99.90
25138;DHT22;13112;50.986;4.354;2023-03-01T02:46:41;0.10;99.90
25138;DHT22;13112;50.986;4.354;2023-03-01T02:49:21;0.10;99.90
25138;DHT22;13112;50.986;4.354;2023-03-01T02:51:52;0.00;99.90
25138;DHT22;13112;50.986;4.354;2023-03-01T02:57:08;0.10;99.90
25138;DHT22;13112;50.986;4.354;2023-03-01T02:59:35;0.00;99.90
25138;DHT22;13112;50.986;4.354;2023-03-01T03:02:08;0.10;99.90
25138;DHT22;13112;50.986;4.354;2023-03-01T03:04:46;0.00;99.90
25138;DHT22;13112;50.986;4.354;2023-03-01T03:07:12;0.00;99.90
25138;DHT22;13112;50.986;4.354;2023-03-01T03:09:38;0.00;99.90
25138;DHT22;13112;50.986;4.354;2023-03-01T03:12:03;0.00;99.90
25138;DHT22;13112;50.986;4.354;2023-03-01T03:14:29;0.00;99.90
25138;DHT22;13112;50.986;4.354;2023-03-01T03:16:55;-0.10;99.90
25138;DHT22;13112;50.986;4.354;2023-03-01T03:19:21;0.00;99.90
25138;DHT22;13112;50.986;4.354;2023-03-01T03:21:47;0.20;99.90
25138;DHT22;13112;50.986;4.354;2023-03-01T03:24:13;0.20;99.90
25138;DHT22;13112;50.986;4.354;2023-03-01T03:26:38;0.30;99.90
25138;DHT22;13112;50.986;4.354;2023-03-01T03:29:04;0.30;99.90
25138;DHT22;13112;50.986;4.354;2023-03-01T03:31:30;0.30;99.90
25138;DHT22;13112;50.986;4.354;2023-03-01T03:33:55;0.30;99.90
25138;DHT22;13112;50.986;4.354;2023-03-01T03:36:23;0.20;99.90
25138;DHT22;13112;50.986;4.354;2023-03-01T03:38:49;0.10;99.90
25138;DHT22;13112;50.986;4.354;2023-03-01T03:41:16;0.10;99.90
25138;DHT22;13112;50.986;4.354;2023-03-01T03:43:42;0.00;99.90
25138;DHT22;13112;50.986;4.354;2023-03-01T03:46:09;0.00;99.90
25138;DHT22;13112;50.986;4.354;2023-03-01T03:48:41;0.00;99.90
25138;DHT22;13112;50.986;4.354;2023-03-01T03:51:10;0.00;99.90
25138;DHT22;13112;50.986;4.354;2023-03-01T03:53:36;0.00;99.90
25138;DHT22;13112;50.986;4.354;2023-03-01T03:56:02;0.00;99.90
25138;DHT22;13112;50.986;4.354;2023-03-01T03:58:29;0.00;99.90
25138;DHT22;13112;50.986;4.354;2023-03-01T04:00:56;0.00;99.90
25138;DHT22;13112;50.986;4.354;2023-03-01T04:03:23;0.00;99.90
25138;DHT22;13112;50.986;4.354;2023-03-01T04:05:50;0.00;99.90
25138;DHT22;13112;50.986;4.354;2023-03-01T04:08:17;0.00;99.90
25138;DHT22;13112;50.986;4.354;2023-03-01T04:10:46;0.00;99.90
25138;DHT22;13112;50.986;4.354;2023-03-01T04:13:16;0.00;99.90
25138;DHT22;13112;50.986;4.354;2023-03-01T04:15:42;0.00;99.90
25138;DHT22;13112;50.986;4.354;2023-03-01T04:18:13;-0.10;99.90
25138;DHT22;13112;50.986;4.354;2023-03-01T04:20:38;-0.10;99.90
25138;DHT22;13112;50.986;4.354;2023-03-01T04:23:22;-0.10;99.90
25138;DHT22;13112;50.986;4.354;2023-03-01T04:25:57;0.00;99.90
25138;DHT22;13112;50.986;4.354;2023-03-01T04:28:34;0.00;99.90
25138;DHT22;13112;50.986;4.354;2023-03-01T04:31:06;0.00;99.90
25138;DHT22;13112;50.986;4.354;2023-03-01T04:33:39;0.00;99.90
25138;DHT22;13112;50.986;4.354;2023-03-01T04:36:06;-0.10;99.90
25138;DHT22;13112;50.986;4.354;2023-03-01T04:38:35;-0.10;99.90
25138;DHT22;13112;50.986;4.354;2023-03-01T04:41:06;-0.10;99.90
25138;DHT22;13112;50.986;4.354;2023-03-01T04:43:32;-0.10;99.90
25138;DHT22;13112;50.986;4.354;2023-03-01T04:46:09;0.00;99.90
25138;DHT22;13112;50.986;4.354;2023-03-01T04:48:37;-0.10;99.90
25138;DHT22;13112;50.986;4.354;2023-03-01T04:51:03;-0.10;99.90
25138;DHT22;13112;50.986;4.354;2023-03-01T04:53:29;-0.20;99.90
25138;DHT22;13112;50.986;4.354;2023-03-01T04:55:56;-0.10;99.90
25138;DHT22;13112;50.986;4.354;2023-03-01T04:58:23;-0.20;99.90
25138;DHT22;13112;50.986;4.354;2023-03-01T05:00:49;-0.20;99.90
25138;DHT22;13112;50.986;4.354;2023-03-01T05:03:15;-0.20;99.90
25138;DHT22;13112;50.986;4.354;2023-03-01T05:05:44;-0.20;99.90
25138;DHT22;13112;50.986;4.354;2023-03-01T05:08:10;-0.20;99.90
25138;DHT22;13112;50.986;4.354;2023-03-01T05:10:45;-0.20;99.90
25138;DHT22;13112;50.986;4.354;2023-03-01T05:13:13;-0.20;99.90
25138;DHT22;13112;50.986;4.354;2023-03-01T05:15:40;-0.30;99.90
25138;DHT22;13112;50.986;4.354;2023-03-01T05:18:06;-0.30;99.90
25138;DHT22;13112;50.986;4.354;2023-03-01T05:20:37;-0.30;99.90
25138;DHT22;13112;50.986;4.354;2023-03-01T05:23:03;-0.30;99.90
25138;DHT22;13112;50.986;4.354;2023-03-01T05:25:33;-0.30;99.90
25138;DHT22;13112;50.986;4.354;2023-03-01T05:28:03;-0.40;99.90
25138;DHT22;13112;50.986;4.354;2023-03-01T05:30:33;-0.40;99.90
25138;DHT22;13112;50.986;4.354;2023-03-01T05:33:00;-0.30;99.90
25138;DHT22;13112;50.986;4.354;2023-03-01T05:35:26;-0.30;99.90
25138;DHT22;13112;50.986;4.354;2023-03-01T05:37:52;-0.40;99.90
25138;DHT22;13112;50.986;4.354;2023-03-01T05:40:19;-0.40;99.90
25138;DHT22;13112;50.986;4.354;2023-03-01T05:42:48;-0.30;99.90
25138;DHT22;13112;50.986;4.354;2023-03-01T05:45:15;-0.40;99.90
25138;DHT22;13112;50.986;4.354;2023-03-01T05:47:42;-0.40;99.90
25138;DHT22;13112;50.986;4.354;2023-03-01T05:50:17;-0.40;99.90
25138;DHT22;13112;50.986;4.354;2023-03-01T05:52:48;-0.50;99.90
25138;DHT22;13112;50.986;4.354;2023-03-01T05:55:16;-0.50;99.90
25138;DHT22;13112;50.986;4.354;2023-03-01T05:57:42;-0.50;99.90
25138;DHT22;13112;50.986;4.354;2023-03-01T06:00:09;-0.50;99.90
25138;DHT22;13112;50.986;4.354;2023-03-01T06:02:34;-0.60;99.90
25138;DHT22;13112;50.986;4.354;2023-03-01T06:05:00;-0.50;99.90
25138;DHT22;13112;50.986;4.354;2023-03-01T06:07:26;-0.50;99.90
25138;DHT22;13112;50.986;4.354;2023-03-01T06:09:51;-0.50;99.90
25138;DHT22;13112;50.986;4.354;2023-03-01T06:12:17;-0.50;99.90
25138;DHT22;13112;50.986;4.354;2023-03-01T06:14:43;-0.50;99.90
25138;DHT22;13112;50.986;4.354;2023-03-01T06:17:10;-0.50;99.90
25138;DHT22;13112;50.986;4.354;2023-03-01T06:19:36;-0.50;99.90
25138;DHT22;13112;50.986;4.354;2023-03-01T06:22:01;-0.50;99.90
25138;DHT22;13112;50.986;4.354;2023-03-01T06:24:27;-0.60;99.90
25138;DHT22;13112;50.986;4.354;2023-03-01T06:26:54;-0.60;99.90
25138;DHT22;13112;50.986;4.354;2023-03-01T06:29:19;-0.60;99.90
25138;DHT22;13112;50.986;4.354;2023-03-01T06:31:45;-0.70;99.90
25138;DHT22;13112;50.986;4.354;2023-03-01T06:34:11;-0.70;99.90
25138;DHT22;13112;50.986;4.354;2023-03-01T06:36:39;-0.60;99.90
25138;DHT22;13112;50.986;4.354;2023-03-01T06:39:05;-0.60;99.90
25138;DHT22;13112;50.986;4.354;2023-03-01T06:41:31;-0.70;99.90
25138;DHT22;13112;50.986;4.354;2023-03-01T06:43:58;-0.90;99.90
25138;DHT22;13112;50.986;4.354;2023-03-01T06:46:24;-1.00;99.90
25138;DHT22;13112;50.986;4.354;2023-03-01T06:48:50;-0.90;99.90
25138;DHT22;13112;50.986;4.354;2023-03-01T06:51:15;-0.90;99.90
25138;DHT22;13112;50.986;4.354;2023-03-01T06:53:41;-0.80;99.90
25138;DHT22;13112;50.986;4.354;2023-03-01T06:56:07;-0.80;99.90
25138;DHT22;13112;50.986;4.354;2023-03-01T06:58:32;-0.80;99.90
25138;DHT22;13112;50.986;4.354;2023-03-01T07:00:58;-0.60;99.90
25138;DHT22;13112;50.986;4.354;2023-03-01T07:03:24;-0.70;99.90
25138;DHT22;13112;50.986;4.354;2023-03-01T07:05:50;-0.50;99.90
25138;DHT22;13112;50.986;4.354;2023-03-01T07:08:18;-0.40;99.90
25138;DHT22;13112;50.986;4.354;2023-03-01T07:10:44;-0.40;99.90
25138;DHT22;13112;50.986;4.354;2023-03-01T07:13:09;-0.20;99.90
25138;DHT22;13112;50.986;4.354;2023-03-01T07:15:35;0.50;99.90
25138;DHT22;13112;50.986;4.354;2023-03-01T07:18:01;1.70;99.90
25138;DHT22;13112;50.986;4.354;2023-03-01T07:20:27;3.00;99.90
25138;DHT22;13112;50.986;4.354;2023-03-01T07:22:54;4.40;99.90
25138;DHT22;13112;50.986;4.354;2023-03-01T07:25:20;5.60;99.90
25138;DHT22;13112;50.986;4.354;2023-03-01T07:27:52;6.70;99.90
25138;DHT22;13112;50.986;4.354;2023-03-01T07:30:18;7.60;99.90
25138;DHT22;13112;50.986;4.354;2023-03-01T07:32:44;8.40;99.90
25138;DHT22;13112;50.986;4.354;2023-03-01T07:35:11;9.20;99.90
25138;DHT22;13112;50.986;4.354;2023-03-01T07:37:36;10.00;99.90
25138;DHT22;13112;50.986;4.354;2023-03-01T07:40:02;10.70;99.90
25138;DHT22;13112;50.986;4.354;2023-03-01T07:42:28;11.20;99.90
25138;DHT22;13112;50.986;4.354;2023-03-01T07:44:54;11.10;99.90
25138;DHT22;13112;50.986;4.354;2023-03-01T07:47:20;11.50;99.90
25138;DHT22;13112;50.986;4.354;2023-03-01T07:49:45;12.10;99.70
25138;DHT22;13112;50.986;4.354;2023-03-01T07:52:12;12.60;97.30
25138;DHT22;13112;50.986;4.354;2023-03-01T07:54:38;12.60;96.60
25138;DHT22;13112;50.986;4.354;2023-03-01T07:57:04;13.10;95.30
25138;DHT22;13112;50.986;4.354;2023-03-01T07:59:29;13.50;94.10
25138;DHT22;13112;50.986;4.354;2023-03-01T08:01:56;13.90;93.30
25138;DHT22;13112;50.986;4.354;2023-03-01T08:04:22;14.10;92.10
25138;DHT22;13112;50.986;4.354;2023-03-01T08:06:50;14.80;91.00
25138;DHT22;13112;50.986;4.354;2023-03-01T08:09:16;15.20;90.20
25138;DHT22;13112;50.986;4.354;2023-03-01T08:11:42;14.70;86.70
25138;DHT22;13112;50.986;4.354;2023-03-01T08:14:08;14.40;87.10
25138;DHT22;13112;50.986;4.354;2023-03-01T08:16:34;14.60;86.30
25138;DHT22;13112;50.986;4.354;2023-03-01T08:19:09;13.90;86.90
25138;DHT22;13112;50.986;4.354;2023-03-01T08:21:35;14.40;86.30
25138;DHT22;13112;50.986;4.354;2023-03-01T08:24:02;14.50;86.40
25138;DHT22;13112;50.986;4.354;2023-03-01T08:26:27;14.30;84.50
25138;DHT22;13112;50.986;4.354;2023-03-01T08:28:53;13.90;85.30
25138;DHT22;13112;50.986;4.354;2023-03-01T08:33:47;12.70;85.90
25138;DHT22;13112;50.986;4.354;2023-03-01T08:36:24;11.10;88.80
25138;DHT22;13112;50.986;4.354;2023-03-01T08:38:50;9.30;91.70
25138;DHT22;13112;50.986;4.354;2023-03-01T08:41:17;8.60;93.30
25138;DHT22;13112;50.986;4.354;2023-03-01T08:43:42;7.90;94.70
25138;DHT22;13112;50.986;4.354;2023-03-01T08:46:09;7.70;95.70
25138;DHT22;13112;50.986;4.354;2023-03-01T08:48:34;8.20;96.40
25138;DHT22;13112;50.986;4.354;2023-03-01T08:51:10;8.80;95.20
25138;DHT22;13112;50.986;4.354;2023-03-01T08:53:37;10.30;94.70
25138;DHT22;13112;50.986;4.354;2023-03-01T08:56:03;11.10;93.10
25138;DHT22;13112;50.986;4.354;2023-03-01T08:58:29;12.10;91.90
25138;DHT22;13112;50.986;4.354;2023-03-01T09:00:55;13.40;91.50
25138;DHT22;13112;50.986;4.354;2023-03-01T09:03:22;14.60;88.30
25138;DHT22;13112;50.986;4.354;2023-03-01T09:05:49;15.60;85.10
25138;DHT22;13112;50.986;4.354;2023-03-01T09:08:19;15.90;82.00
25138;DHT22;13112;50.986;4.354;2023-03-01T09:10:45;16.70;79.80
25138;DHT22;13112;50.986;4.354;2023-03-01T09:13:11;16.00;78.50
25138;DHT22;13112;50.986;4.354;2023-03-01T09:15:37;16.20;78.20
25138;DHT22;13112;50.986;4.354;2023-03-01T09:18:03;17.40;77.40
25138;DHT22;13112;50.986;4.354;2023-03-01T09:20:31;17.90;73.30
25138;DHT22;13112;50.986;4.354;2023-03-01T09:22:57;17.80;72.60
25138;DHT22;13112;50.986;4.354;2023-03-01T09:25:23;17.00;71.10
25138;DHT22;13112;50.986;4.354;2023-03-01T09:27:51;16.70;73.20
25138;DHT22;13112;50.986;4.354;2023-03-01T09:30:17;16.00;74.10
25138;DHT22;13112;50.986;4.354;2023-03-01T09:32:43;17.00;72.00
25138;DHT22;13112;50.986;4.354;2023-03-01T09:35:10;16.70;71.30
25138;DHT22;13112;50.986;4.354;2023-03-01T09:37:37;16.60;71.10
25138;DHT22;13112;50.986;4.354;2023-03-01T09:40:05;15.50;72.60
25138;DHT22;13112;50.986;4.354;2023-03-01T09:42:34;15.50;73.20
25138;DHT22;13112;50.986;4.354;2023-03-01T09:47:44;16.70;71.70
25138;DHT22;13112;50.986;4.354;2023-03-01T09:50:14;15.90;70.60
25138;DHT22;13112;50.986;4.354;2023-03-01T09:55:19;14.70;73.50
25138;DHT22;13112;50.986;4.354;2023-03-01T09:57:52;15.20;74.30
25138;DHT22;13112;50.986;4.354;2023-03-01T10:00:30;15.80;72.20
25138;DHT22;13112;50.986;4.354;2023-03-01T10:10:55;16.10;70.50
25138;DHT22;13112;50.986;4.354;2023-03-01T10:13:43;15.90;70.60
25138;DHT22;13112;50.986;4.354;2023-03-01T10:16:15;16.10;71.00
25138;DHT22;13112;50.986;4.354;2023-03-01T10:18:43;16.80;69.30
25138;DHT22;13112;50.986;4.354;2023-03-01T10:21:18;17.60;68.90
25138;DHT22;13112;50.986;4.354;2023-03-01T10:23:44;17.50;68.10
25138;DHT22;13112;50.986;4.354;2023-03-01T10:29:04;17.70;65.10
25138;DHT22;13112;50.986;4.354;2023-03-01T10:31:39;16.50;67.00
25138;DHT22;13112;50.986;4.354;2023-03-01T10:34:17;17.00;66.40
25138;DHT22;13112;50.986;4.354;2023-03-01T10:36:47;17.60;67.20
25138;DHT22;13112;50.986;4.354;2023-03-01T10:39:17;18.40;66.60
25138;DHT22;13112;50.986;4.354;2023-03-01T10:41:59;18.90;64.60
25138;DHT22;13112;50.986;4.354;2023-03-01T10:44:45;19.70;62.70
25138;DHT22;13112;50.986;4.354;2023-03-01T10:47:18;18.90;60.70
25138;DHT22;13112;50.986;4.354;2023-03-01T10:49:57;17.70;62.90
25138;DHT22;13112;50.986;4.354;2023-03-01T10:52:27;17.10;64.40
25138;DHT22;13112;50.986;4.354;2023-03-01T10:54:59;17.40;63.00
25138;DHT22;13112;50.986;4.354;2023-03-01T10:57:39;17.50;63.00
25138;DHT22;13112;50.986;4.354;2023-03-01T11:00:25;18.30;61.70
25138;DHT22;13112;50.986;4.354;2023-03-01T11:04:02;18.80;62.20
25138;DHT22;13112;50.986;4.354;2023-03-01T11:06:00;18.60;60.30
25138;DHT22;13112;50.986;4.354;2023-03-01T11:08:47;19.30;60.80
25138;DHT22;13112;50.986;4.354;2023-03-01T11:16:28;18.80;58.50
25138;DHT22;13112;50.986;4.354;2023-03-01T11:21:59;18.10;59.70
25138;DHT22;13112;50.986;4.354;2023-03-01T11:24:45;19.70;60.30
25138;DHT22;13112;50.986;4.354;2023-03-01T11:29:57;19.00;56.80
25138;DHT22;13112;50.986;4.354;2023-03-01T11:32:28;19.60;58.90
25138;DHT22;13112;50.986;4.354;2023-03-01T11:35:04;20.30;56.10
25138;DHT22;13112;50.986;4.354;2023-03-01T11:40:16;17.60;59.00
25138;DHT22;13112;50.986;4.354;2023-03-01T11:42:48;16.60;60.40
25138;DHT22;13112;50.986;4.354;2023-03-01T11:45:22;16.80;59.50
25138;DHT22;13112;50.986;4.354;2023-03-01T11:50:30;16.90;61.40
25138;DHT22;13112;50.986;4.354;2023-03-01T11:58:29;17.20;60.20
25138;DHT22;13112;50.986;4.354;2023-03-01T12:04:09;17.20;61.70
25138;DHT22;13112;50.986;4.354;2023-03-01T12:06:57;17.80;60.90
25138;DHT22;13112;50.986;4.354;2023-03-01T12:09:45;18.20;58.40
25138;DHT22;13112;50.986;4.354;2023-03-01T12:26:20;18.80;57.60
25138;DHT22;13112;50.986;4.354;2023-03-01T12:39:28;20.90;55.70
25138;DHT22;13112;50.986;4.354;2023-03-01T12:47:46;21.40;52.90
25138;DHT22;13112;50.986;4.354;2023-03-01T12:50:39;20.30;53.40
25138;DHT22;13112;50.986;4.354;2023-03-01T12:53:07;21.00;52.20
25138;DHT22;13112;50.986;4.354;2023-03-01T12:55:43;21.00;51.40
25138;DHT22;13112;50.986;4.354;2023-03-01T12:58:29;20.50;51.70
25138;DHT22;13112;50.986;4.354;2023-03-01T13:01:23;20.20;51.70
25138;DHT22;13112;50.986;4.354;2023-03-01T13:04:32;19.80;52.70
25138;DHT22;13112;50.986;4.354;2023-03-01T13:12:46;19.20;53.30
25138;DHT22;13112;50.986;4.354;2023-03-01T13:17:58;20.30;51.90
25138;DHT22;13112;50.986;4.354;2023-03-01T13:23:10;20.40;51.60
25138;DHT22;13112;50.986;4.354;2023-03-01T13:33:52;20.80;50.40
25138;DHT22;13112;50.986;4.354;2023-03-01T13:44:25;19.40;51.10
25138;DHT22;13112;50.986;4.354;2023-03-01T13:46:52;18.30;53.20
25138;DHT22;13112;50.986;4.354;2023-03-01T13:49:22;18.30;53.90
25138;DHT22;13112;50.986;4.354;2023-03-01T13:51:50;18.30;54.70
25138;DHT22;13112;50.986;4.354;2023-03-01T13:54:30;19.00;53.30
25138;DHT22;13112;50.986;4.354;2023-03-01T13:56:59;18.60;53.70
25138;DHT22;13112;50.986;4.354;2023-03-01T13:59:25;18.80;53.50
25138;DHT22;13112;50.986;4.354;2023-03-01T14:01:53;18.20;54.00
25138;DHT22;13112;50.986;4.354;2023-03-01T14:04:26;18.50;55.30
25138;DHT22;13112;50.986;4.354;2023-03-01T14:07:18;19.00;54.80
25138;DHT22;13112;50.986;4.354;2023-03-01T14:09:47;19.20;53.00
25138;DHT22;13112;50.986;4.354;2023-03-01T14:12:19;19.20;53.50
25138;DHT22;13112;50.986;4.354;2023-03-01T14:17:43;17.80;54.70
25138;DHT22;13112;50.986;4.354;2023-03-01T14:20:17;17.20;55.00
25138;DHT22;13112;50.986;4.354;2023-03-01T14:22:44;18.00;55.20
25138;DHT22;13112;50.986;4.354;2023-03-01T14:25:26;17.80;55.50
25138;DHT22;13112;50.986;4.354;2023-03-01T14:30:41;14.30;59.10
25138;DHT22;13112;50.986;4.354;2023-03-01T14:38:38;12.50;64.20
25138;DHT22;13112;50.986;4.354;2023-03-01T14:43:44;13.40;63.10
25138;DHT22;13112;50.986;4.354;2023-03-01T14:46:34;14.80;61.80
25138;DHT22;13112;50.986;4.354;2023-03-01T14:54:46;16.10;58.50
25138;DHT22;13112;50.986;4.354;2023-03-01T14:57:19;16.30;58.50
25138;DHT22;13112;50.986;4.354;2023-03-01T14:59:45;16.30;58.00
25138;DHT22;13112;50.986;4.354;2023-03-01T15:02:19;16.00;58.30
25138;DHT22;13112;50.986;4.354;2023-03-01T15:04:55;16.20;58.50
25138;DHT22;13112;50.986;4.354;2023-03-01T15:07:29;16.50;57.60
25138;DHT22;13112;50.986;4.354;2023-03-01T15:09:57;15.90;59.00
25138;DHT22;13112;50.986;4.354;2023-03-01T15:12:34;16.20;59.30
25138;DHT22;13112;50.986;4.354;2023-03-01T15:15:00;15.70;60.30
25138;DHT22;13112;50.986;4.354;2023-03-01T15:17:37;16.00;61.00
25138;DHT22;13112;50.986;4.354;2023-03-01T15:20:17;16.00;60.60
25138;DHT22;13112;50.986;4.354;2023-03-01T15:22:46;15.90;60.80
25138;DHT22;13112;50.986;4.354;2023-03-01T15:25:16;15.70;60.10
25138;DHT22;13112;50.986;4.354;2023-03-01T15:27:48;15.40;61.80
25138;DHT22;13112;50.986;4.354;2023-03-01T15:30:27;15.30;61.40
25138;DHT22;13112;50.986;4.354;2023-03-01T15:35:51;13.40;64.90
25138;DHT22;13112;50.986;4.354;2023-03-01T15:38:50;12.10;66.90
25138;DHT22;13112;50.986;4.354;2023-03-01T15:41:31;11.40;69.20
25138;DHT22;13112;50.986;4.354;2023-03-01T15:44:14;10.50;71.20
25138;DHT22;13112;50.986;4.354;2023-03-01T15:46:40;10.20;72.50
25138;DHT22;13112;50.986;4.354;2023-03-01T15:51:55;9.60;75.20
25138;DHT22;13112;50.986;4.354;2023-03-01T15:54:23;9.60;76.10
25138;DHT22;13112;50.986;4.354;2023-03-01T15:56:49;9.70;76.10
25138;DHT22;13112;50.986;4.354;2023-03-01T15:59:16;9.70;75.70
25138;DHT22;13112;50.986;4.354;2023-03-01T16:01:43;9.50;75.80
25138;DHT22;13112;50.986;4.354;2023-03-01T16:04:11;9.30;75.20
25138;DHT22;13112;50.986;4.354;2023-03-01T16:06:41;9.30;76.50
25138;DHT22;13112;50.986;4.354;2023-03-01T16:09:07;9.00;76.10
25138;DHT22;13112;50.986;4.354;2023-03-01T16:11:34;8.60;77.30
25138;DHT22;13112;50.986;4.354;2023-03-01T16:14:02;8.40;77.90
25138;DHT22;13112;50.986;4.354;2023-03-01T16:16:28;8.40;79.00
25138;DHT22;13112;50.986;4.354;2023-03-01T16:18:53;8.30;78.10
25138;DHT22;13112;50.986;4.354;2023-03-01T16:21:23;8.30;78.30
25138;DHT22;13112;50.986;4.354;2023-03-01T16:23:50;8.10;79.00
25138;DHT22;13112;50.986;4.354;2023-03-01T16:26:16;8.00;78.90
25138;DHT22;13112;50.986;4.354;2023-03-01T16:28:44;7.90;80.80
25138;DHT22;13112;50.986;4.354;2023-03-01T16:31:10;7.90;80.20
25138;DHT22;13112;50.986;4.354;2023-03-01T16:33:36;7.80;81.00
25138;DHT22;13112;50.986;4.354;2023-03-01T16:36:10;7.70;82.10
25138;DHT22;13112;50.986;4.354;2023-03-01T16:38:37;7.70;82.40
25138;DHT22;13112;50.986;4.354;2023-03-01T16:41:03;7.80;82.10
25138;DHT22;13112;50.986;4.354;2023-03-01T16:43:29;7.70;83.40
25138;DHT22;13112;50.986;4.354;2023-03-01T16:45:55;7.70;83.50
25138;DHT22;13112;50.986;4.354;2023-03-01T16:48:21;7.70;84.10
25138;DHT22;13112;50.986;4.354;2023-03-01T16:50:59;7.50;83.60
25138;DHT22;13112;50.986;4.354;2023-03-01T16:53:26;7.50;84.40
25138;DHT22;13112;50.986;4.354;2023-03-01T16:55:58;7.40;84.50
25138;DHT22;13112;50.986;4.354;2023-03-01T16:58:24;7.50;84.00
25138;DHT22;13112;50.986;4.354;2023-03-01T17:00:54;7.40;84.80
25138;DHT22;13112;50.986;4.354;2023-03-01T17:03:24;7.30;84.80
25138;DHT22;13112;50.986;4.354;2023-03-01T17:05:51;7.30;85.60
25138;DHT22;13112;50.986;4.354;2023-03-01T17:08:17;7.30;85.60
25138;DHT22;13112;50.986;4.354;2023-03-01T17:10:43;7.10;86.80
25138;DHT22;13112;50.986;4.354;2023-03-01T17:13:09;7.10;86.30
25138;DHT22;13112;50.986;4.354;2023-03-01T17:15:38;7.00;86.90
25138;DHT22;13112;50.986;4.354;2023-03-01T17:18:05;7.00;87.20
25138;DHT22;13112;50.986;4.354;2023-03-01T17:20:31;7.00;87.50
25138;DHT22;13112;50.986;4.354;2023-03-01T17:22:57;7.00;88.10
25138;DHT22;13112;50.986;4.354;2023-03-01T17:25:23;7.00;88.00
25138;DHT22;13112;50.986;4.354;2023-03-01T17:27:48;6.80;89.10
25138;DHT22;13112;50.986;4.354;2023-03-01T17:30:14;6.70;88.90
25138;DHT22;13112;50.986;4.354;2023-03-01T17:32:40;6.60;89.80
25138;DHT22;13112;50.986;4.354;2023-03-01T17:35:07;6.70;90.10
25138;DHT22;13112;50.986;4.354;2023-03-01T17:37:33;6.80;90.00
25138;DHT22;13112;50.986;4.354;2023-03-01T17:39:58;6.90;89.90
25138;DHT22;13112;50.986;4.354;2023-03-01T17:42:24;6.70;90.50
25138;DHT22;13112;50.986;4.354;2023-03-01T17:44:50;6.50;90.70
25138;DHT22;13112;50.986;4.354;2023-03-01T17:47:16;6.60;90.90
25138;DHT22;13112;50.986;4.354;2023-03-01T17:49:41;6.50;91.10
25138;DHT22;13112;50.986;4.354;2023-03-01T17:52:07;6.40;91.20
25138;DHT22;13112;50.986;4.354;2023-03-01T17:54:33;6.40;91.30
25138;DHT22;13112;50.986;4.354;2023-03-01T17:56:59;6.30;91.50
25138;DHT22;13112;50.986;4.354;2023-03-01T17:59:25;6.30;91.80
25138;DHT22;13112;50.986;4.354;2023-03-01T18:01:56;6.20;92.40
25138;DHT22;13112;50.986;4.354;2023-03-01T18:04:23;6.10;92.40